Time;durP1;ratioP1;P1;durP2;ratioP2;P2;SDS_P1;SDS_P2;PMS_P1;PMS_P2;Temp;Humidity;BMP_temperature;BMP_pressure;BME280_temperature;BME280_humidity;BME280_pressure;Samples;Min_cycle;Max_cycle;Signal;HPM_P1;HPM_P2
2022/12/21 00:01:28;;;;;;;;;10.00;10.00;;;;;13.00;82.79;100738.91;5038769;28;45493;-73
2022/12/21 00:03:59;;;;;;;;;12.33;10.67;;;;;13.01;82.89;100746.78;5064546;28;45327;-74
2022/12/21 00:06:27;;;;;;;;;10.00;9.33;;;;;12.72;82.95;100692.94;5060028;28;45491;-77
2022/12/21 00:08:55;;;;;;;;;12.00;11.33;;;;;13.01;82.84;100746.78;5060861;28;45511;-73
2022/12/21 00:11:22;;;;;;;;;11.00;10.33;;;;;12.27;82.70;100616.72;5058833;28;45618;-73
2022/12/21 00:13:48;;;;;;;;;11.33;11.00;;;;;12.80;82.64;100707.13;5069263;27;45744;-74
2022/12/21 00:16:17;;;;;;;;;9.67;9.67;;;;;13.08;82.87;100757.66;5074088;28;45496;-75
2022/12/21 00:18:43;;;;;;;;;11.00;11.00;;;;;12.99;82.52;100739.91;5074477;28;45467;-75
2022/12/21 00:21:11;;;;;;;;;15.33;15.33;;;;;13.04;82.67;100725.13;5075490;28;45497;-73
2022/12/21 00:23:37;;;;;;;;;13.67;13.67;;;;;12.70;82.30;100694.94;5068407;28;46081;-74
2022/12/21 00:26:04;;;;;;;;;12.00;12.00;;;;;12.94;82.59;100728.91;5074797;28;45701;-73
2022/12/21 00:28:30;;;;;;;;;14.67;11.00;;;;;12.84;82.55;100701.50;5066796;28;45395;-73
2022/12/21 00:31:02;;;;;;;;;11.67;11.67;;;;;13.01;82.12;100727.25;5067893;28;45456;-73
2022/12/21 00:33:27;;;;;;;;;8.67;8.67;;;;;13.16;81.69;100739.00;5055319;28;47826;-73
2022/12/21 00:35:53;;;;;;;;;8.67;8.67;;;;;13.13;81.88;100750.00;5062632;28;45433;-71
2022/12/21 00:38:18;;;;;;;;;12.33;12.33;;;;;13.14;82.43;100742.81;5074311;28;45458;-72
2022/12/21 00:40:44;;;;;;;;;13.33;11.67;;;;;12.70;82.25;100668.25;5072224;28;45395;-72
2022/12/21 00:43:10;;;;;;;;;10.33;8.67;;;;;12.34;82.35;100608.91;5078890;28;46523;-73
2022/12/21 00:45:37;;;;;;;;;9.00;9.00;;;;;12.95;82.70;100720.72;5043405;28;45566;-72
2022/12/21 00:48:03;;;;;;;;;11.33;10.00;;;;;13.14;82.49;100745.50;5061188;28;45340;-72
2022/12/21 00:50:31;;;;;;;;;10.67;9.00;;;;;13.02;82.53;100719.09;5070786;28;45494;-72
2022/12/21 00:52:56;;;;;;;;;7.33;7.33;;;;;11.40;81.88;100444.47;5069777;28;46756;-70
2022/12/21 00:55:21;;;;;;;;;11.33;10.67;;;;;13.09;82.27;100727.31;5070499;28;45392;-71
2022/12/21 00:57:47;;;;;;;;;12.33;11.67;;;;;13.18;82.15;100742.38;5061700;28;45502;-72
2022/12/21 01:00:13;;;;;;;;;13.67;10.67;;;;;12.92;82.60;100715.72;5080910;28;45520;-71
2022/12/21 01:02:38;;;;;;;;;12.33;10.00;;;;;13.01;82.50;100725.44;5078230;28;46183;-72
2022/12/21 01:05:03;;;;;;;;;7.33;6.67;;;;;13.17;82.46;100746.00;5078511;28;45459;-72
2022/12/21 01:07:29;;;;;;;;;10.33;10.33;;;;;12.25;82.77;100594.72;5070344;28;45329;-73
2022/12/21 01:09:54;;;;;;;;;11.50;11.50;;;;;12.90;82.21;100700.88;5070928;28;45464;-71
2022/12/21 01:12:20;;;;;;;;;11.33;10.67;;;;;13.02;82.31;100731.63;5070642;28;45791;-73
2022/12/21 01:14:45;;;;;;;;;12.00;12.00;;;;;13.06;83.01;100740.97;5074555;27;55776;-70
2022/12/21 01:17:10;;;;;;;;;8.33;8.00;;;;;11.73;82.97;100519.25;5067107;28;45341;-74
2022/12/21 01:19:36;;;;;;;;;12.67;11.67;;;;;12.14;82.93;100585.13;5069302;28;45384;-72
2022/12/21 01:22:01;;;;;;;;;8.33;8.33;;;;;12.27;82.57;100603.38;5073125;28;45327;-71
2022/12/21 01:24:26;;;;;;;;;8.67;8.33;;;;;13.20;83.04;100755.56;5049571;28;45502;-73
2022/12/21 01:26:52;;;;;;;;;9.33;7.33;;;;;13.14;82.61;100745.50;5060577;28;45477;-71
2022/12/21 01:29:17;;;;;;;;;7.00;7.00;;;;;13.16;82.44;100768.38;5052617;28;46376;-71
2022/12/21 01:31:42;;;;;;;;;3.67;3.67;;;;;13.02;82.44;100748.47;5060211;28;47946;-74
2022/12/21 01:34:11;;;;;;;;;7.33;6.33;;;;;13.12;82.71;100760.84;5078517;28;45372;-72
2022/12/21 01:36:36;;;;;;;;;10.67;7.67;;;;;13.20;82.48;100766.22;5076829;28;45435;-71
2022/12/21 01:39:02;;;;;;;;;7.67;7.67;;;;;13.15;82.72;100757.84;5050858;28;45551;-71
2022/12/21 01:41:28;;;;;;;;;6.67;6.67;;;;;12.89;82.39;100704.53;5048208;28;48454;-72
2022/12/21 01:43:55;;;;;;;;;7.67;7.67;;;;;13.17;82.40;100764.69;5049297;28;45336;-72
2022/12/21 01:46:39;;;;;;;;;10.33;10.00;;;;;13.22;81.97;100769.59;5048390;28;45364;-73
2022/12/21 01:49:24;;;;;;;;;9.33;7.00;;;;;13.20;82.17;100771.56;5066612;28;45692;-74
2022/12/21 01:51:58;;;;;;;;;12.33;9.33;;;;;12.74;82.21;100712.28;5069224;28;47227;-70
2022/12/21 01:54:30;;;;;;;;;6.00;6.00;;;;;12.70;82.11;100714.44;5044761;28;45566;-72
2022/12/21 01:57:00;;;;;;;;;8.33;7.33;;;;;13.07;82.26;100762.16;5040504;28;45268;-72
2022/12/21 01:59:39;;;;;;;;;6.33;6.33;;;;;12.57;82.07;100674.00;5066125;28;45467;-73
2022/12/21 02:02:11;;;;;;;;;9.00;9.00;;;;;13.17;82.24;100786.06;5055125;28;48922;-72
2022/12/21 02:04:37;;;;;;;;;5.67;5.67;;;;;13.12;81.82;100779.53;5058144;28;45305;-70
2022/12/21 02:07:02;;;;;;;;;10.33;7.67;;;;;12.55;82.09;100678.66;5070462;28;45471;-74
2022/12/21 02:09:32;;;;;;;;;6.67;6.67;;;;;13.08;82.03;100779.00;5076595;28;45293;-72
2022/12/21 02:12:01;;;;;;;;;8.67;7.33;;;;;12.91;81.96;100750.56;5075540;28;46760;-72
2022/12/21 02:14:29;;;;;;;;;6.67;6.67;;;;;13.12;81.95;100798.22;5065754;28;45538;-73
2022/12/21 02:17:01;;;;;;;;;7.00;6.33;;;;;13.21;80.95;100805.28;5067084;28;45491;-73
2022/12/21 02:19:47;;;;;;;;;5.33;4.67;;;;;12.49;80.82;100680.16;5052728;28;45532;-69
2022/12/21 02:22:37;;;;;;;;;4.67;4.67;;;;;13.20;80.18;100795.59;5065491;28;46705;-73
2022/12/21 02:25:24;;;;;;;;;4.00;4.00;;;;;13.26;78.28;100809.16;5076955;28;45549;-72
2022/12/21 02:28:33;;;;;;;;;5.00;4.00;;;;;13.24;78.21;100805.00;5059715;28;45436;-72
2022/12/21 02:31:18;;;;;;;;;4.00;4.00;;;;;13.23;77.78;100796.16;5074455;28;45342;-72
2022/12/21 02:34:26;;;;;;;;;4.67;3.67;;;;;13.09;77.75;100778.84;5068101;28;45630;-73
2022/12/21 02:37:07;;;;;;;;;4.00;3.33;;;;;13.16;77.43;100794.22;5067495;28;45255;-71
2022/12/21 02:39:55;;;;;;;;;3.33;3.33;;;;;12.99;77.25;100779.94;5052159;28;45378;-73
2022/12/21 02:45:38;;;;;;;;;4.00;4.00;;;;;12.88;76.74;100796.25;5069014;28;45261;-74
2022/12/21 02:48:18;;;;;;;;;4.00;3.33;;;;;12.82;77.13;100799.56;5068705;28;45371;-71
2022/12/21 02:50:49;;;;;;;;;3.67;3.00;;;;;12.78;76.39;100817.69;5061244;28;45281;-71
2022/12/21 02:53:25;;;;;;;;;2.33;2.33;;;;;11.72;75.99;100670.22;5057613;28;45669;-71
2022/12/21 02:55:51;;;;;;;;;4.00;4.00;;;;;12.34;76.07;100753.69;5072520;28;47237;-71
2022/12/21 02:58:22;;;;;;;;;2.67;2.67;;;;;12.60;76.34;100800.88;5068712;28;45639;-71
2022/12/21 03:00:50;;;;;;;;;3.67;3.67;;;;;12.60;76.75;100817.72;5068247;28;45255;-73
2022/12/21 03:06:16;;;;;;;;;2.00;2.00;;;;;12.44;76.56;100796.28;5066928;28;45780;-74
2022/12/21 03:08:50;;;;;;;;;2.33;2.33;;;;;12.48;76.32;100814.47;5064229;28;45278;-71
2022/12/21 03:11:15;;;;;;;;;2.50;2.00;;;;;12.44;76.25;100829.13;5060657;28;45333;-71
2022/12/21 03:13:50;;;;;;;;;3.00;3.00;;;;;12.36;76.79;100823.69;5068745;28;45178;-71
2022/12/21 03:16:44;;;;;;;;;3.00;3.00;;;;;11.98;77.02;100781.38;5057887;28;47540;-70
2022/12/21 03:19:30;;;;;;;;;1.00;1.00;;;;;11.48;76.34;100707.28;5071115;28;45241;-70
2022/12/21 03:22:03;;;;;;;;;1.00;1.00;;;;;11.96;76.92;100802.84;5057566;28;45246;-70
2022/12/21 03:24:39;;;;;;;;;1.33;1.33;;;;;11.40;77.00;100699.19;5061896;28;45218;-71
2022/12/21 03:27:10;;;;;;;;;2.00;2.00;;;;;11.99;76.77;100793.69;5067843;28;45685;-72
2022/12/21 03:29:44;;;;;;;;;2.00;2.00;;;;;12.05;77.00;100817.09;5063303;28;45580;-72
2022/12/21 03:32:14;;;;;;;;;6.00;3.00;;;;;12.10;76.72;100814.81;5058522;28;45346;-71
2022/12/21 03:34:44;;;;;;;;;4.00;1.00;;;;;11.78;76.94;100784.16;5076896;28;45925;-71
2022/12/21 03:37:17;;;;;;;;;2.00;2.00;;;;;11.56;76.93;100747.28;5063699;28;47585;-71
2022/12/21 03:39:48;;;;;;;;;2.00;2.00;;;;;11.81;76.78;100793.69;5071001;28;45475;-71
2022/12/21 03:42:20;;;;;;;;;2.00;2.00;;;;;11.41;76.57;100738.13;5058311;28;45509;-73
2022/12/21 03:45:04;;;;;;;;;3.00;2.00;;;;;12.02;76.66;100836.06;5056895;28;45372;-71
2022/12/21 03:47:55;;;;;;;;;2.00;2.00;;;;;11.92;76.85;100817.44;5064604;28;45616;-71
2022/12/21 03:50:27;;;;;;;;;2.00;2.00;;;;;11.69;76.78;100785.06;5056507;28;45330;-74
2022/12/21 03:53:10;;;;;;;;;5.00;2.00;;;;;11.83;77.18;100813.03;5064927;28;45491;-72
2022/12/21 03:55:40;;;;;;;;;3.00;1.67;;;;;11.14;77.23;100699.91;5069737;28;45455;-71
2022/12/21 03:58:06;;;;;;;;;1.67;1.67;;;;;11.70;77.15;100783.22;5067250;28;45592;-73
2022/12/21 04:00:42;;;;;;;;;2.33;2.00;;;;;11.87;76.68;100817.91;5060192;28;45261;-71
2022/12/21 04:03:17;;;;;;;;;2.00;2.00;;;;;11.98;76.01;100826.66;5057726;28;45412;-71
2022/12/21 04:05:52;;;;;;;;;2.33;2.33;;;;;11.50;75.72;100748.72;5076570;28;45316;-72
2022/12/21 04:08:18;;;;;;;;;3.00;0.25;;;;;11.86;75.61;100824.22;5066316;28;45766;-71
2022/12/21 04:10:46;;;;;;;;;1.00;1.00;;;;;11.87;76.15;100844.56;5064573;28;45407;-71
2022/12/21 04:13:12;;;;;;;;;1.67;1.67;;;;;11.59;76.38;100792.25;5064843;27;45454;-71
2022/12/21 04:19:57;;;;;;;;;0.33;0.33;;;;;11.74;75.77;100836.03;5097962;27;45859;-72
2022/12/21 04:21:06;;;;;;;;;1.00;1.00;;;;;11.71;76.21;100839.00;5100199;27;45499;-73
2022/12/21 04:28:59;;;;;;;;;2.00;2.00;;;;;11.26;76.31;100783.06;5093566;27;45457;-72
2022/12/21 04:31:24;;;;;;;;;2.00;2.00;;;;;11.70;76.36;100861.28;5090325;27;45460;-72
2022/12/21 04:33:50;;;;;;;;;1.00;1.00;;;;;11.63;76.18;100840.75;5100672;27;45485;-73
2022/12/21 04:38:59;;;;;;;;;1.00;1.00;;;;;11.03;76.51;100773.78;5093636;27;45764;-72
2022/12/21 04:41:24;;;;;;;;;0.00;0.00;;;;;11.65;76.19;100849.41;5078573;27;45439;-72
2022/12/21 04:43:49;;;;;;;;;3.00;2.00;;;;;11.65;76.47;100863.56;5092462;27;45414;-72
2022/12/21 04:46:16;;;;;;;;;1.67;1.67;;;;;10.27;76.13;100620.53;5099801;27;45351;-73
2022/12/21 04:48:43;;;;;;;;;3.00;2.00;;;;;11.68;76.65;100857.94;5087768;27;46519;-71
2022/12/21 04:51:13;;;;;;;;;1.00;1.00;;;;;11.08;76.12;100761.72;5086337;27;45513;-71
2022/12/21 04:53:39;;;;;;;;;3.00;2.00;;;;;11.18;76.41;100774.94;5089464;27;45328;-71
2022/12/21 04:56:05;;;;;;;;;0.67;0.67;;;;;11.70;76.32;100877.28;5107040;27;45553;-72
2022/12/21 04:58:31;;;;;;;;;2.75;2.75;;;;;11.02;76.09;100756.97;5088670;27;47223;-70
2022/12/21 05:00:57;;;;;;;;;1.67;1.00;;;;;9.79;76.64;100572.81;5079581;27;45447;-72
2022/12/21 05:03:23;;;;;;;;;5.33;2.67;;;;;11.67;76.10;100866.09;5095762;27;45535;-74
2022/12/21 05:05:48;;;;;;;;;2.00;2.00;;;;;11.68;76.41;100863.28;5079728;27;45404;-71
2022/12/21 05:08:13;;;;;;;;;2.00;2.00;;;;;10.95;76.02;100747.88;5086033;27;45735;-70
2022/12/21 05:10:39;;;;;;;;;3.00;3.00;;;;;11.66;75.86;100889.22;5090486;27;45204;-70
2022/12/21 05:13:05;;;;;;;;;1.00;1.00;;;;;11.44;75.98;100847.00;5088905;27;45181;-70
2022/12/21 05:15:30;;;;;;;;;2.67;2.00;;;;;11.38;75.87;100839.56;5075592;28;45522;-72
2022/12/21 05:17:57;;;;;;;;;2.33;2.33;;;;;11.25;75.66;100830.13;5074473;28;46301;-73
2022/12/21 05:20:22;;;;;;;;;2.00;2.00;;;;;11.51;75.93;100872.03;5058900;28;45432;-72
2022/12/21 05:22:48;;;;;;;;;3.67;2.67;;;;;11.55;75.79;100884.06;5058729;28;45381;-69
2022/12/21 05:25:14;;;;;;;;;1.67;1.33;;;;;11.53;75.52;100880.72;5064902;28;45610;-72
2022/12/21 05:27:40;;;;;;;;;1.33;1.33;;;;;11.52;75.61;100876.38;5078003;28;46363;-71
2022/12/21 05:30:06;;;;;;;;;2.33;2.33;;;;;11.51;75.61;100888.00;5059743;28;53865;-72
2022/12/21 05:32:31;;;;;;;;;4.33;2.00;;;;;11.23;75.30;100836.59;5070321;28;45476;-70
2022/12/21 05:34:57;;;;;;;;;2.00;2.00;;;;;11.51;74.88;100877.38;5070148;28;45221;-72
2022/12/21 05:37:22;;;;;;;;;2.00;2.00;;;;;10.92;74.76;100780.94;5071028;28;45531;-72
2022/12/21 05:39:47;;;;;;;;;1.67;1.00;;;;;11.44;75.26;100874.47;5076038;28;45492;-72
2022/12/21 05:42:13;;;;;;;;;3.33;3.00;;;;;11.46;74.56;100880.47;5066964;28;45245;-72
2022/12/21 05:44:38;;;;;;;;;2.00;2.00;;;;;11.44;74.79;100885.13;5048852;28;45482;-72
2022/12/21 05:47:04;;;;;;;;;1.00;1.00;;;;;11.40;74.52;100882.88;5078330;28;45922;-72
2022/12/21 05:49:29;;;;;;;;;3.67;2.33;;;;;10.95;74.93;100809.91;5078092;28;45294;-73
2022/12/21 05:51:54;;;;;;;;;2.00;2.00;;;;;11.34;74.59;100888.78;5059866;28;45274;-72
2022/12/21 05:54:20;;;;;;;;;2.00;1.00;;;;;11.32;74.50;100901.41;5070373;28;45222;-72
2022/12/21 05:56:45;;;;;;;;;2.67;2.67;;;;;10.77;74.79;100808.13;5068434;28;46160;-72
2022/12/21 05:59:11;;;;;;;;;1.00;1.00;;;;;11.30;75.30;100898.88;5039819;28;46062;-72
2022/12/21 06:01:36;;;;;;;;;3.67;2.00;;;;;11.29;75.01;100899.88;5066149;28;45432;-72
2022/12/21 06:04:02;;;;;;;;;2.00;2.00;;;;;10.96;75.17;100842.66;5059509;28;45213;-70
2022/12/21 06:06:27;;;;;;;;;4.00;2.00;;;;;10.99;75.12;100863.66;5077765;28;45574;-71
2022/12/21 06:08:53;;;;;;;;;3.00;3.00;;;;;11.19;75.62;100894.56;5057790;28;46108;-71
2022/12/21 06:11:21;;;;;;;;;2.00;2.00;;;;;11.19;75.27;100894.56;5040207;28;45563;-72
2022/12/21 06:13:47;;;;;;;;;3.00;3.00;;;;;11.19;75.95;100899.03;5062375;27;45482;-70
2022/12/21 06:16:16;;;;;;;;;3.33;2.00;;;;;11.15;75.29;100901.16;5055214;28;48141;-73
2022/12/21 06:18:42;;;;;;;;;4.00;2.33;;;;;11.11;75.47;100899.78;5066087;28;45371;-73
2022/12/21 06:21:09;;;;;;;;;2.00;2.00;;;;;11.05;75.55;100881.72;5069137;28;45320;-73
2022/12/21 06:23:35;;;;;;;;;2.00;2.00;;;;;10.89;75.74;100866.34;5062818;28;45424;-73
2022/12/21 06:26:03;;;;;;;;;2.00;2.00;;;;;10.73;75.90;100847.47;5064629;28;45395;-72
2022/12/21 06:28:29;;;;;;;;;2.00;2.00;;;;;10.89;76.27;100892.13;5051299;28;46622;-74
2022/12/21 06:30:55;;;;;;;;;2.00;2.00;;;;;10.89;76.33;100908.06;5059571;28;45544;-71
2022/12/21 06:33:22;;;;;;;;;0.00;0.00;;;;;10.84;76.76;100900.53;5069652;28;45501;-71
2022/12/21 06:35:54;;;;;;;;;3.00;3.00;;;;;10.79;77.08;100910.72;5056419;28;48567;-72
2022/12/21 06:38:19;;;;;;;;;3.67;3.67;;;;;10.65;76.80;100890.75;5073443;28;45498;-69
2022/12/21 06:40:56;;;;;;;;;0.00;0.00;;;;;10.57;76.62;100882.63;5065794;28;46328;-70
2022/12/21 06:43:22;;;;;;;;;3.67;2.00;;;;;10.66;76.62;100908.38;5066040;28;45176;-73
2022/12/21 06:45:54;;;;;;;;;2.67;2.67;;;;;10.69;77.33;100911.72;5064786;28;45569;-71
2022/12/21 06:48:19;;;;;;;;;3.33;3.00;;;;;10.42;76.71;100878.72;5050254;28;45983;-72
2022/12/21 06:50:50;;;;;;;;;4.00;4.00;;;;;10.31;76.79;100860.25;5078149;28;45466;-72
2022/12/21 06:53:16;;;;;;;;;3.00;3.00;;;;;10.57;77.20;100909.19;5075874;28;45372;-71
2022/12/21 06:55:41;;;;;;;;;3.67;3.67;;;;;10.46;77.72;100893.41;5068427;28;46291;-71
2022/12/21 06:58:06;;;;;;;;;3.00;3.00;;;;;10.54;77.03;100920.13;5076994;28;45446;-71
2022/12/21 07:00:32;;;;;;;;;3.00;3.00;;;;;10.54;77.01;100930.75;5072089;28;45693;-72
2022/12/21 07:02:58;;;;;;;;;2.33;2.33;;;;;9.65;76.75;100786.47;5073395;28;45429;-75
2022/12/21 07:05:23;;;;;;;;;5.67;4.00;;;;;10.40;77.38;100893.09;5068823;28;45847;-72
2022/12/21 07:07:48;;;;;;;;;4.00;4.00;;;;;10.33;77.02;100890.16;5068827;28;45597;-71
2022/12/21 07:10:14;;;;;;;;;5.67;4.00;;;;;10.49;77.37;100933.00;5076938;28;46763;-73
2022/12/21 07:12:39;;;;;;;;;3.00;2.67;;;;;10.51;76.63;100936.34;5071357;28;45566;-72
2022/12/21 07:15:05;;;;;;;;;3.33;3.33;;;;;10.45;76.52;100934.25;5073727;28;46650;-73
2022/12/21 07:17:30;;;;;;;;;4.33;4.33;;;;;10.18;76.65;100897.66;5068876;28;45455;-72
2022/12/21 07:19:56;;;;;;;;;4.67;4.67;;;;;10.17;76.60;100889.84;5068758;28;45603;-72
2022/12/21 07:22:21;;;;;;;;;5.00;5.00;;;;;9.64;76.39;100807.84;5076680;28;45255;-73
2022/12/21 07:24:46;;;;;;;;;5.67;5.33;;;;;10.16;76.61;100896.13;5052397;28;47787;-71
2022/12/21 07:27:12;;;;;;;;;4.33;4.00;;;;;10.43;76.38;100936.22;5065971;28;45370;-72
2022/12/21 07:29:38;;;;;;;;;9.00;7.00;;;;;10.37;76.35;100915.47;5068548;28;45245;-72
2022/12/21 07:32:03;;;;;;;;;7.33;5.00;;;;;10.47;76.23;100947.41;5077028;28;45981;-72
2022/12/21 07:34:29;;;;;;;;;6.00;5.00;;;;;10.18;76.16;100894.16;5054666;28;47336;-73
2022/12/21 07:36:54;;;;;;;;;5.00;5.00;;;;;10.41;76.63;100948.81;5070929;28;45512;-73
2022/12/21 07:39:19;;;;;;;;;6.00;6.00;;;;;10.30;76.57;100928.50;5049965;28;45543;-73
2022/12/21 07:41:44;;;;;;;;;9.00;7.67;;;;;9.97;76.40;100873.84;5067982;28;48873;-72
2022/12/21 07:44:10;;;;;;;;;7.00;5.00;;;;;10.44;76.29;100955.66;5068236;28;45761;-74
2022/12/21 07:46:35;;;;;;;;;6.00;5.67;;;;;10.21;76.37;100918.69;5057368;28;45424;-72
2022/12/21 07:49:01;;;;;;;;;6.00;6.00;;;;;10.22;76.61;100916.88;5067334;28;45377;-74
2022/12/21 07:51:26;;;;;;;;;8.67;6.00;;;;;10.45;76.66;100968.81;5071814;28;45478;-73
2022/12/21 07:53:51;;;;;;;;;7.33;6.00;;;;;10.24;76.77;100923.75;5069375;28;45554;-73
2022/12/21 07:56:18;;;;;;;;;8.00;8.00;;;;;10.37;76.76;100947.38;5069647;28;45531;-75
2022/12/21 07:58:44;;;;;;;;;6.33;5.67;;;;;10.46;76.63;100975.81;5071743;28;45494;-73
2022/12/21 08:01:12;;;;;;;;;7.00;6.33;;;;;10.40;76.42;100962.19;5062201;28;45639;-72
2022/12/21 08:03:39;;;;;;;;;9.33;7.33;;;;;10.28;76.14;100956.19;5068490;28;46417;-73
2022/12/21 08:06:06;;;;;;;;;7.33;7.00;;;;;10.46;76.40;100983.78;5060084;28;45416;-75
2022/12/21 08:08:32;;;;;;;;;7.33;6.00;;;;;10.37;76.10;100955.34;5041778;28;45444;-71
2022/12/21 08:10:57;;;;;;;;;7.67;7.67;;;;;10.15;76.23;100919.19;5067974;28;45556;-73
2022/12/21 08:13:24;;;;;;;;;7.00;5.00;;;;;10.40;76.33;100956.88;5075522;27;45749;-72
2022/12/21 08:15:57;;;;;;;;;6.67;5.00;;;;;10.27;76.37;100928.78;5049309;28;45349;-74
2022/12/21 08:18:23;;;;;;;;;6.00;6.00;;;;;10.41;76.48;100959.44;5075725;28;45525;-74
2022/12/21 08:20:48;;;;;;;;;9.33;7.33;;;;;10.38;75.91;100954.38;5052204;28;45340;-73
2022/12/21 08:23:14;;;;;;;;;9.00;7.33;;;;;10.24;76.17;100922.91;5078994;28;45421;-73
2022/12/21 08:25:39;;;;;;;;;11.33;10.33;;;;;10.45;76.00;100962.66;5061097;28;45499;-72
2022/12/21 08:28:05;;;;;;;;;10.33;10.00;;;;;10.47;76.29;100953.56;5072220;28;45434;-72
2022/12/21 08:30:30;;;;;;;;;12.33;10.00;;;;;10.47;75.62;100945.59;5060902;28;45596;-73
2022/12/21 08:32:55;;;;;;;;;6.33;6.33;;;;;10.06;76.02;100880.19;5054587;28;63421;-71
2022/12/21 08:35:21;;;;;;;;;7.33;7.33;;;;;9.77;75.94;100832.31;5055667;28;45875;-73
2022/12/21 08:37:46;;;;;;;;;6.67;5.00;;;;;10.68;76.25;100965.88;5075553;28;45485;-72
2022/12/21 08:40:12;;;;;;;;;10.00;7.00;;;;;10.59;75.89;100925.00;5059614;28;45553;-74
2022/12/21 08:42:37;;;;;;;;;9.67;8.67;;;;;10.64;75.33;100933.44;5068026;28;46241;-73
2022/12/21 08:45:03;;;;;;;;;10.67;8.00;;;;;11.02;75.13;100951.19;5066975;28;45572;-73
2022/12/21 08:47:29;;;;;;;;;8.00;7.33;;;;;11.69;73.78;100971.47;5048533;28;45464;-73
2022/12/21 08:49:54;;;;;;;;;6.00;6.00;;;;;12.29;70.57;100913.28;5044372;28;45399;-72
2022/12/21 08:52:19;;;;;;;;;8.33;8.00;;;;;13.80;66.89;100972.69;5070124;28;65666;-73
2022/12/21 08:54:45;;;;;;;;;8.67;8.33;;;;;14.40;64.11;100963.72;5068863;28;46933;-71
2022/12/21 08:57:10;;;;;;;;;6.33;6.33;;;;;15.29;61.50;100971.88;5055771;28;45989;-74
2022/12/21 08:59:35;;;;;;;;;8.00;7.00;;;;;14.56;61.29;100963.81;5066397;28;45278;-72
2022/12/21 09:02:00;;;;;;;;;6.67;6.67;;;;;14.04;61.58;100915.84;5075017;28;48148;-73
2022/12/21 09:04:26;;;;;;;;;6.00;5.33;;;;;13.64;63.45;100922.69;5073808;28;45288;-71
2022/12/21 09:06:51;;;;;;;;;6.67;5.67;;;;;13.01;64.34;100879.38;5070656;28;45405;-74
2022/12/21 09:09:17;;;;;;;;;5.67;4.00;;;;;12.45;65.58;100846.78;5079046;28;45619;-73
2022/12/21 09:11:42;;;;;;;;;6.67;5.67;;;;;12.84;66.44;100950.47;5051453;28;53232;-74
2022/12/21 09:14:07;;;;;;;;;16.00;13.00;;;;;12.61;67.44;100942.06;5059618;28;46333;-72
2022/12/21 09:16:33;;;;;;;;;6.00;6.00;;;;;12.06;67.41;100872.06;5078180;28;45482;-74
2022/12/21 09:18:58;;;;;;;;;11.33;6.67;;;;;11.99;68.16;100869.13;5051581;28;45287;-71
2022/12/21 09:21:24;;;;;;;;;7.33;6.00;;;;;12.11;68.12;100886.59;5073165;28;45533;-74
2022/12/21 09:23:51;;;;;;;;;6.33;4.00;;;;;12.38;68.87;100944.34;5067521;28;45165;-72
2022/12/21 09:26:16;;;;;;;;;8.00;6.67;;;;;12.31;69.25;100951.28;5070734;28;45342;-72
2022/12/21 09:28:42;;;;;;;;;8.33;6.00;;;;;11.93;68.91;100899.06;5060781;28;45576;-72
2022/12/21 09:31:10;;;;;;;;;7.67;6.33;;;;;12.16;69.35;100958.09;5068093;28;45544;-72
2022/12/21 09:33:36;;;;;;;;;6.00;6.00;;;;;12.22;69.77;100964.69;5068827;28;45521;-72
2022/12/21 09:36:02;;;;;;;;;8.00;8.00;;;;;11.68;70.10;100873.94;5058667;28;45518;-73
2022/12/21 09:38:28;;;;;;;;;7.33;6.33;;;;;11.83;70.32;100907.13;5071896;28;45506;-73
2022/12/21 09:41:00;;;;;;;;;9.33;8.00;;;;;12.24;70.11;100981.38;5048259;28;45652;-70
2022/12/21 09:43:32;;;;;;;;;11.00;8.00;;;;;12.21;70.71;100987.81;5058966;28;45648;-72
2022/12/21 09:46:08;;;;;;;;;9.00;7.00;;;;;12.15;70.51;100977.75;5040895;28;45436;-72
2022/12/21 09:48:48;;;;;;;;;12.00;11.00;;;;;12.16;71.21;100984.75;5064487;28;46815;-72
2022/12/21 09:51:21;;;;;;;;;8.00;8.00;;;;;12.10;70.42;100964.88;5066722;28;46464;-72
2022/12/21 09:53:57;;;;;;;;;7.67;7.67;;;;;12.11;70.78;100976.38;5066734;28;45450;-71
2022/12/21 09:56:25;;;;;;;;;7.00;7.00;;;;;11.78;70.91;100946.66;5076281;28;45392;-73
2022/12/21 09:58:52;;;;;;;;;7.00;5.67;;;;;12.09;70.57;100995.19;5061841;28;45354;-72
2022/12/21 10:01:27;;;;;;;;;6.00;4.00;;;;;12.05;71.42;100998.31;5069423;28;46163;-72
2022/12/21 10:04:06;;;;;;;;;7.00;6.00;;;;;12.07;70.99;100991.00;5069032;28;45245;-72
2022/12/21 10:06:48;;;;;;;;;7.00;5.67;;;;;12.02;71.60;100996.78;5057184;28;45479;-70
2022/12/21 10:09:32;;;;;;;;;7.00;7.00;;;;;11.61;71.40;100918.09;5051498;28;45421;-72
2022/12/21 10:12:22;;;;;;;;;6.00;6.00;;;;;11.95;71.51;100992.16;5067817;28;47143;-72
2022/12/21 10:15:02;;;;;;;;;5.00;5.00;;;;;11.99;71.42;100994.38;5072388;28;45669;-75
2022/12/21 10:17:51;;;;;;;;;8.00;7.00;;;;;12.01;71.92;100989.72;5048712;28;45288;-71
2022/12/21 10:20:29;;;;;;;;;5.67;5.67;;;;;11.99;71.66;100988.22;5060468;28;45508;-72
2022/12/21 10:22:59;;;;;;;;;9.67;7.67;;;;;11.73;71.85;100951.56;5077546;28;45619;-73
2022/12/21 10:25:37;;;;;;;;;5.67;5.00;;;;;11.86;71.77;100967.25;5076076;28;45509;-71
2022/12/21 10:28:14;;;;;;;;;7.00;7.00;;;;;11.94;71.85;100974.50;5068924;28;45537;-72
2022/12/21 10:30:46;;;;;;;;;3.00;3.00;;;;;11.93;72.14;100978.97;5057890;28;45475;-72
2022/12/21 10:33:12;;;;;;;;;8.00;8.00;;;;;11.94;71.83;100966.50;5063132;28;45519;-70
2022/12/21 10:35:39;;;;;;;;;7.00;7.00;;;;;11.91;71.93;100975.63;5065589;28;45481;-72
2022/12/21 10:38:14;;;;;;;;;7.00;6.00;;;;;11.91;71.89;100956.97;5066807;28;45200;-72
2022/12/21 10:40:43;;;;;;;;;6.33;6.33;;;;;11.96;71.86;100973.34;5077270;28;45325;-71
2022/12/21 10:43:11;;;;;;;;;9.67;8.00;;;;;11.95;72.01;100961.03;5062591;28;46728;-72
2022/12/21 10:45:37;;;;;;;;;5.00;5.00;;;;;11.98;72.04;100959.88;5048761;28;45502;-71
2022/12/21 10:48:02;;;;;;;;;9.33;5.67;;;;;11.92;72.07;100936.50;5057304;28;45515;-72
2022/12/21 10:50:31;;;;;;;;;8.00;6.00;;;;;11.22;72.25;100808.28;5065779;28;45284;-72
2022/12/21 10:52:59;;;;;;;;;8.67;7.67;;;;;12.00;71.61;100936.59;5071512;28;46418;-71
2022/12/21 10:55:34;;;;;;;;;10.33;10.00;;;;;12.03;72.28;100920.34;5076124;28;45672;-71
2022/12/21 10:58:18;;;;;;;;;5.00;2.67;;;;;12.03;71.85;100920.34;5069887;28;45508;-73
2022/12/21 11:01:01;;;;;;;;;6.33;6.00;;;;;12.01;72.13;100923.13;5070243;28;45505;-71
2022/12/21 11:03:37;;;;;;;;;7.00;6.33;;;;;11.38;72.42;100807.63;5060206;28;45263;-70
2022/12/21 11:06:14;;;;;;;;;7.33;6.00;;;;;11.60;72.32;100836.53;5068554;28;45400;-72
2022/12/21 11:08:47;;;;;;;;;11.50;8.00;;;;;12.01;72.30;100904.47;5073198;28;45340;-71
2022/12/21 11:11:36;;;;;;;;;6.67;6.67;;;;;11.94;72.29;100894.56;5064355;28;45577;-72
2022/12/21 11:14:16;;;;;;;;;8.00;6.33;;;;;11.55;72.25;100815.69;5071736;27;45740;-69
2022/12/21 11:16:43;;;;;;;;;12.00;10.00;;;;;11.91;72.34;100869.06;5057346;28;45554;-71
2022/12/21 11:19:12;;;;;;;;;12.00;10.00;;;;;12.14;72.09;100896.13;5058195;28;45528;-71
2022/12/21 11:21:45;;;;;;;;;7.00;7.00;;;;;11.94;71.44;100846.59;5070367;28;45466;-71
2022/12/21 11:24:19;;;;;;;;;8.00;7.00;;;;;12.37;71.29;100897.34;5040379;28;45456;-71
2022/12/21 11:26:48;;;;;;;;;10.00;9.00;;;;;12.35;71.28;100903.84;5074762;28;45494;-71
2022/12/21 11:29:36;;;;;;;;;11.00;10.00;;;;;12.22;70.98;100869.56;5076797;28;45263;-71
2022/12/21 11:32:05;;;;;;;;;9.67;7.33;;;;;12.26;71.32;100857.59;5064993;28;45484;-72
2022/12/21 11:34:40;;;;;;;;;10.00;9.00;;;;;11.71;70.91;100761.75;5064132;28;45667;-72
2022/12/21 11:37:21;;;;;;;;;10.00;6.00;;;;;12.42;71.37;100873.75;5072319;28;45581;-73
2022/12/21 11:39:47;;;;;;;;;9.00;8.00;;;;;11.73;71.66;100756.28;5058234;28;45221;-71
2022/12/21 11:42:20;;;;;;;;;8.67;7.67;;;;;12.28;71.21;100858.28;5043978;28;45491;-72
2022/12/21 11:44:47;;;;;;;;;10.33;10.33;;;;;12.47;70.85;100870.63;5076922;28;46397;-72
2022/12/21 11:47:50;;;;;;;;;8.67;8.33;;;;;12.51;71.11;100861.31;5072279;28;45245;-70
2022/12/21 11:50:35;;;;;;;;;10.33;9.33;;;;;12.55;71.35;100868.03;5041047;28;45718;-71